Time;durP1;ratioP1;P1;durP2;ratioP2;P2;SDS_P1;SDS_P2;PMS_P1;PMS_P2;Temp;Humidity;BMP_temperature;BMP_pressure;BME280_temperature;BME280_humidity;BME280_pressure;Samples;Min_cycle;Max_cycle;Signal;HPM_P1;HPM_P2
2021/01/31 00:00:35;;;;;;;65.07;23.03;;;-3.00;99.90;;;;;;4428025;28;657907;-67
2021/01/31 00:03:24;;;;;;;61.40;22.57;;;-3.10;99.90;;;;;;4442206;28;658430;-67
2021/01/31 00:06:12;;;;;;;64.17;23.67;;;-3.10;99.90;;;;;;4428678;28;658286;-67
2021/01/31 00:09:00;;;;;;;71.33;22.93;;;-3.10;99.90;;;;;;4432784;28;657533;-65
2021/01/31 00:11:47;;;;;;;65.17;22.37;;;-3.00;99.90;;;;;;4443502;28;658255;-66
2021/01/31 00:14:34;;;;;;;59.38;22.05;;;-3.20;99.90;;;;;;4419790;28;657671;-64
2021/01/31 00:17:21;;;;;;;69.07;23.17;;;-3.20;99.90;;;;;;4450246;28;657395;-67
2021/01/31 00:20:09;;;;;;;71.40;23.97;;;-3.40;99.90;;;;;;4448326;28;658920;-67
2021/01/31 00:22:57;;;;;;;62.80;23.87;;;-3.50;99.90;;;;;;4418582;28;658016;-67
2021/01/31 00:25:44;;;;;;;67.27;22.40;;;-3.60;99.90;;;;;;4436938;28;657443;-64
2021/01/31 00:28:31;;;;;;;70.30;22.90;;;-3.70;99.90;;;;;;4448867;28;657916;-66
2021/01/31 00:31:18;;;;;;;64.33;22.13;;;-3.80;99.90;;;;;;4447791;28;657789;-67
2021/01/31 00:34:05;;;;;;;61.50;23.17;;;-3.70;99.90;;;;;;4420489;28;657204;-67
2021/01/31 00:36:52;;;;;;;67.67;23.17;;;-3.70;99.90;;;;;;4437734;28;658259;-66
2021/01/31 00:39:40;;;;;;;66.95;23.35;;;-3.80;99.90;;;;;;4420956;28;657744;-65
2021/01/31 00:42:27;;;;;;;74.40;23.27;;;-3.80;99.90;;;;;;4445489;28;658826;-67
2021/01/31 00:45:15;;;;;;;57.13;21.37;;;-3.90;99.90;;;;;;4429452;28;657549;-65
2021/01/31 00:48:02;;;;;;;62.08;21.08;;;-4.00;99.90;;;;;;4447153;28;658884;-67
2021/01/31 00:50:50;;;;;;;62.03;21.98;;;-3.80;99.90;;;;;;4428486;28;658108;-64
2021/01/31 00:53:37;;;;;;;66.37;21.67;;;-3.90;99.90;;;;;;4446520;28;658479;-68
2021/01/31 00:56:25;;;;;;;61.33;20.77;;;-4.00;99.90;;;;;;4423369;28;657451;-67
2021/01/31 00:59:12;;;;;;;60.83;20.47;;;-4.00;99.90;;;;;;4447130;28;658998;-68
2021/01/31 01:01:59;;;;;;;60.70;21.17;;;-4.00;99.90;;;;;;4428271;28;657778;-65
2021/01/31 01:04:47;;;;;;;65.47;21.43;;;-4.00;99.90;;;;;;4446803;28;659501;-67
2021/01/31 01:07:34;;;;;;;59.70;20.33;;;-4.10;99.90;;;;;;4420142;28;657724;-66
2021/01/31 01:10:23;;;;;;;57.28;20.15;;;-4.10;99.90;;;;;;4451344;28;656986;-67
2021/01/31 01:13:10;;;;;;;58.33;20.27;;;-4.20;99.90;;;;;;4420312;28;657694;-67
2021/01/31 01:19:33;;;;;;;59.03;19.97;;;-4.40;99.90;;;;;;4408777;28;658994;-67
2021/01/31 01:22:20;;;;;;;52.30;18.63;;;-4.40;99.90;;;;;;4429908;28;657782;-67
2021/01/31 01:25:08;;;;;;;53.13;17.57;;;-4.50;99.90;;;;;;4450734;28;658397;-67
2021/01/31 01:27:55;;;;;;;55.78;18.63;;;-4.60;99.90;;;;;;4424957;28;657462;-66
2021/01/31 01:30:43;;;;;;;46.05;17.25;;;-4.70;99.90;;;;;;4446692;28;658471;-67
2021/01/31 01:33:30;;;;;;;51.57;17.27;;;-4.80;99.90;;;;;;4420092;28;657694;-67
2021/01/31 01:36:17;;;;;;;54.37;18.33;;;-4.90;99.90;;;;;;4449656;28;658748;-68
2021/01/31 01:39:04;;;;;;;47.75;16.42;;;-5.00;99.90;;;;;;4432593;28;657688;-65
2021/01/31 01:41:51;;;;;;;43.07;14.63;;;-5.00;99.90;;;;;;4447142;28;658246;-68
2021/01/31 01:44:39;;;;;;;38.47;12.93;;;-5.00;99.90;;;;;;4447429;28;658317;-66
2021/01/31 01:47:28;;;;;;;34.87;12.33;;;-5.00;99.90;;;;;;4451184;28;657452;-67
2021/01/31 01:50:30;;;;;;;37.90;13.27;;;-5.20;99.90;;;;;;4428085;28;657873;-67
2021/01/31 01:53:17;;;;;;;33.77;12.13;;;-5.20;99.90;;;;;;4423057;28;657958;-67
2021/01/31 01:56:06;;;;;;;31.60;11.00;;;-5.30;99.90;;;;;;4434702;28;658200;-66
2021/01/31 01:58:53;;;;;;;30.20;11.00;;;-5.40;99.90;;;;;;4438151;28;658609;-67
2021/01/31 02:01:44;;;;;;;29.47;11.77;;;-5.50;99.90;;;;;;4427169;28;657817;-67
2021/01/31 02:04:32;;;;;;;28.38;9.73;;;-5.70;99.90;;;;;;4420827;28;658931;-67
2021/01/31 02:07:19;;;;;;;22.65;9.30;;;-5.90;99.90;;;;;;4433494;28;656446;-66
2021/01/31 02:10:08;;;;;;;27.37;10.13;;;-6.00;99.90;;;;;;4447848;28;656989;-67
2021/01/31 02:12:57;;;;;;;23.03;8.90;;;-6.20;99.90;;;;;;4428225;28;657712;-67
2021/01/31 02:15:45;;;;;;;30.03;10.17;;;-6.40;99.90;;;;;;4448549;28;657461;-64
2021/01/31 02:18:36;;;;;;;29.38;10.43;;;-6.50;99.90;;;;;;4446880;28;659324;-67
2021/01/31 02:21:53;;;;;;;34.70;12.03;;;-6.70;99.90;;;;;;4408550;28;658717;-67
2021/01/31 02:25:06;;;;;;;29.83;10.23;;;-6.80;99.90;;;;;;4429192;28;657709;-67
2021/01/31 02:28:41;;;;;;;27.93;9.30;;;-7.00;99.90;;;;;;4426433;28;657060;-65
2021/01/31 02:32:03;;;;;;;29.65;9.77;;;-7.20;99.90;;;;;;4345969;28;657287;-66
2021/01/31 02:34:54;;;;;;;24.23;8.87;;;-7.30;99.90;;;;;;4333965;28;658170;-67
2021/01/31 02:37:44;;;;;;;27.60;9.35;;;-7.50;99.90;;;;;;4353423;28;658007;-67
2021/01/31 02:40:33;;;;;;;24.98;9.40;;;-7.50;99.90;;;;;;4354730;28;658207;-67
2021/01/31 02:43:29;;;;;;;26.33;9.63;;;-7.70;99.90;;;;;;4360858;28;657108;-67
2021/01/31 02:46:18;;;;;;;23.30;8.70;;;-7.80;99.90;;;;;;4356233;28;656709;-67
2021/01/31 02:49:07;;;;;;;23.40;8.43;;;-7.80;99.90;;;;;;4356866;28;656691;-67
2021/01/31 02:52:09;;;;;;;21.97;8.53;;;-7.80;99.90;;;;;;4361291;28;656403;-64
2021/01/31 02:55:00;;;;;;;24.47;8.40;;;-7.90;99.90;;;;;;4330690;28;657049;-67
2021/01/31 02:57:49;;;;;;;26.60;9.57;;;-7.80;99.90;;;;;;4352760;28;657434;-67
2021/01/31 03:00:38;;;;;;;27.30;10.37;;;-7.90;99.90;;;;;;4355737;28;658190;-67
2021/01/31 03:03:28;;;;;;;25.70;9.80;;;-8.10;99.90;;;;;;4358518;28;657579;-67
2021/01/31 03:06:18;;;;;;;28.53;10.50;;;-8.10;99.90;;;;;;4347936;28;657409;-67
2021/01/31 03:09:09;;;;;;;30.30;11.83;;;-8.20;99.90;;;;;;4414031;28;657632;-68
2021/01/31 03:11:59;;;;;;;34.90;10.23;;;-8.30;99.90;;;;;;4429134;28;658605;-67
2021/01/31 03:14:48;;;;;;;28.60;9.00;;;-8.40;99.90;;;;;;4425630;28;658333;-66
2021/01/31 03:17:36;;;;;;;28.67;9.90;;;-8.40;99.90;;;;;;4425216;28;657202;-67
2021/01/31 03:20:24;;;;;;;28.67;9.05;;;-8.50;99.90;;;;;;4446519;28;657501;-67
2021/01/31 03:23:14;;;;;;;35.17;10.13;;;-8.60;99.90;;;;;;4426703;28;657855;-67
2021/01/31 03:26:03;;;;;;;24.33;9.90;;;-8.60;99.90;;;;;;4427513;28;658080;-67
2021/01/31 03:28:50;;;;;;;24.27;8.43;;;-8.70;99.90;;;;;;4426674;28;658027;-68
2021/01/31 03:31:41;;;;;;;30.63;7.63;;;-8.80;99.90;;;;;;4449428;28;657933;-69
2021/01/31 03:34:29;;;;;;;24.23;7.73;;;-8.90;99.90;;;;;;4426753;28;656555;-69
2021/01/31 03:37:16;;;;;;;19.47;7.37;;;-9.00;99.90;;;;;;4429819;28;657095;-69
2021/01/31 03:40:04;;;;;;;20.73;7.80;;;-9.00;99.90;;;;;;4449476;28;656680;-69
2021/01/31 03:42:52;;;;;;;22.00;7.20;;;-9.10;99.90;;;;;;4413691;28;657998;-67
2021/01/31 03:45:42;;;;;;;24.33;7.00;;;-9.20;99.90;;;;;;4433900;28;656473;-64
2021/01/31 03:48:31;;;;;;;23.27;7.07;;;-9.20;99.90;;;;;;4446372;28;656459;-64
2021/01/31 03:51:17;;;;;;;17.80;6.40;;;-9.30;99.90;;;;;;4449467;28;657127;-67
2021/01/31 03:54:05;;;;;;;18.87;6.47;;;-9.30;99.90;;;;;;4430887;28;658084;-66
2021/01/31 03:56:53;;;;;;;19.87;6.17;;;-9.40;99.90;;;;;;4449844;28;657748;-66
2021/01/31 03:59:42;;;;;;;18.87;6.23;;;-9.50;99.90;;;;;;4430252;28;658180;-66
2021/01/31 04:02:32;;;;;;;16.10;5.37;;;-9.50;99.90;;;;;;4430317;28;656728;-66
2021/01/31 04:05:19;;;;;;;16.47;5.77;;;-9.60;99.90;;;;;;4446373;28;656426;-65
2021/01/31 04:08:07;;;;;;;14.70;5.53;;;-9.60;99.90;;;;;;4465247;28;657338;-66
2021/01/31 04:10:54;;;;;;;13.63;5.97;;;-9.70;99.90;;;;;;4447093;28;656752;-66
2021/01/31 04:13:41;;;;;;;20.20;5.00;;;-9.70;99.90;;;;;;4450095;28;657678;-67
2021/01/31 04:16:31;;;;;;;13.70;4.93;;;-9.70;99.90;;;;;;4458494;28;656943;-67
2021/01/31 04:19:18;;;;;;;17.53;5.50;;;-9.80;99.90;;;;;;4443500;28;656712;-67
2021/01/31 04:22:05;;;;;;;16.63;5.60;;;-9.80;99.90;;;;;;4446154;28;656470;-67
2021/01/31 04:24:52;;;;;;;12.77;5.07;;;-9.80;99.90;;;;;;4465591;28;658152;-66
2021/01/31 04:27:39;;;;;;;16.53;5.03;;;-9.90;99.90;;;;;;4456539;28;656996;-64
2021/01/31 04:30:26;;;;;;;15.37;4.87;;;-9.90;99.90;;;;;;4449483;28;657359;-65
2021/01/31 04:33:15;;;;;;;17.63;5.00;;;-10.00;99.90;;;;;;4449773;28;656867;-66
2021/01/31 04:36:02;;;;;;;9.27;4.50;;;-10.00;99.90;;;;;;4447888;28;658983;-67
2021/01/31 04:38:49;;;;;;;14.82;5.15;;;-10.00;99.90;;;;;;4440804;28;657264;-64
2021/01/31 04:41:38;;;;;;;17.03;4.97;;;-10.10;99.90;;;;;;4469183;28;658218;-69
2021/01/31 04:44:25;;;;;;;11.93;3.63;;;-10.20;99.90;;;;;;4445163;28;657632;-69
2021/01/31 04:47:14;;;;;;;11.97;4.73;;;-10.20;99.90;;;;;;4452434;28;659306;-69
2021/01/31 04:50:10;;;;;;;8.47;3.53;;;-10.30;99.90;;;;;;4425888;28;658786;-68
2021/01/31 04:53:10;;;;;;;7.90;3.97;;;-10.30;99.90;;;;;;4422550;28;657858;-68
2021/01/31 04:56:12;;;;;;;10.25;3.70;;;-10.30;99.90;;;;;;4419910;28;657320;-66
2021/01/31 04:59:07;;;;;;;6.27;3.23;;;-10.30;99.90;;;;;;4391888;28;657721;-64
2021/01/31 05:02:01;;;;;;;8.77;3.80;;;-10.30;99.90;;;;;;4395481;28;656679;-66
2021/01/31 05:04:51;;;;;;;8.13;3.60;;;-10.40;99.90;;;;;;4409165;28;657229;-66
2021/01/31 05:07:43;;;;;;;10.00;3.73;;;-10.40;99.90;;;;;;4412628;28;656190;-69
2021/01/31 05:10:30;;;;;;;9.23;3.87;;;-10.50;99.90;;;;;;4391928;28;658495;-68
2021/01/31 05:13:23;;;;;;;10.43;4.07;;;-10.60;99.90;;;;;;4450098;28;657407;-69
2021/01/31 05:16:11;;;;;;;15.13;3.23;;;-10.70;99.90;;;;;;4416966;28;658280;-67
2021/01/31 05:19:03;;;;;;;11.67;4.10;;;-10.80;99.90;;;;;;4435960;28;657608;-64
2021/01/31 05:21:50;;;;;;;13.03;4.20;;;-10.90;99.90;;;;;;4422573;28;657486;-66
2021/01/31 05:24:38;;;;;;;8.33;3.27;;;-11.00;99.90;;;;;;4449207;28;658574;-67
2021/01/31 05:27:29;;;;;;;7.07;3.23;;;-11.10;99.90;;;;;;4427907;28;656456;-68
2021/01/31 05:30:17;;;;;;;10.60;4.23;;;-11.20;99.90;;;;;;4423130;28;657558;-67
2021/01/31 05:33:07;;;;;;;15.33;3.60;;;-11.20;99.90;;;;;;4428575;28;657943;-67
2021/01/31 05:36:12;;;;;;;12.32;3.30;;;-11.30;99.90;;;;;;4414451;28;657431;-64
2021/01/31 05:39:00;;;;;;;6.63;2.90;;;-11.30;99.90;;;;;;4394637;28;657573;-65
2021/01/31 05:41:48;;;;;;;11.00;3.03;;;-11.40;99.90;;;;;;4459702;28;657498;-68
2021/01/31 05:44:35;;;;;;;10.33;3.60;;;-11.40;99.90;;;;;;4427640;28;658409;-67
2021/01/31 05:47:24;;;;;;;10.07;3.17;;;-11.40;99.90;;;;;;4448651;28;658474;-69
2021/01/31 05:50:30;;;;;;;9.75;2.90;;;-11.40;99.90;;;;;;4432043;28;658851;-69
2021/01/31 05:53:29;;;;;;;14.33;3.80;;;-11.30;99.90;;;;;;4437285;28;657065;-68
2021/01/31 05:56:23;;;;;;;12.73;3.60;;;-11.30;99.90;;;;;;4407691;28;659099;-69
2021/01/31 05:59:12;;;;;;;10.27;3.20;;;-11.50;99.90;;;;;;4422598;28;657469;-69
2021/01/31 06:02:01;;;;;;;41.38;8.82;;;-11.60;99.90;;;;;;4424437;28;657445;-66
2021/01/31 06:04:48;;;;;;;13.60;4.57;;;-11.70;99.90;;;;;;4447815;28;657338;-66
2021/01/31 06:07:35;;;;;;;15.23;6.27;;;-11.70;99.90;;;;;;4418232;28;657879;-68
2021/01/31 06:10:22;;;;;;;28.90;9.80;;;-11.70;99.90;;;;;;4452155;28;659047;-68
2021/01/31 06:13:12;;;;;;;33.43;8.77;;;-11.60;99.90;;;;;;4413495;28;658295;-66
2021/01/31 06:16:01;;;;;;;8.82;2.50;;;-11.70;99.90;;;;;;4417215;28;658749;-66
2021/01/31 06:18:53;;;;;;;8.57;3.27;;;-11.80;99.90;;;;;;4433243;28;656525;-67
2021/01/31 06:21:41;;;;;;;8.73;2.97;;;-11.80;99.90;;;;;;4411009;28;657163;-69
2021/01/31 06:24:30;;;;;;;10.27;3.47;;;-11.70;99.90;;;;;;4432378;28;656348;-67
2021/01/31 06:27:33;;;;;;;8.57;2.30;;;-11.70;99.90;;;;;;4409757;28;658326;-68
2021/01/31 06:30:24;;;;;;;7.13;2.73;;;-11.70;99.90;;;;;;4414777;28;656114;-67
2021/01/31 06:33:12;;;;;;;10.13;2.90;;;-11.70;99.90;;;;;;4410574;28;657956;-68
2021/01/31 06:36:09;;;;;;;7.28;3.25;;;-11.60;99.90;;;;;;4412735;28;657863;-66
2021/01/31 06:39:03;;;;;;;14.37;3.80;;;-11.50;99.90;;;;;;4386671;28;657212;-69
2021/01/31 06:42:04;;;;;;;14.80;5.67;;;-11.50;99.90;;;;;;4386693;28;658710;-68
2021/01/31 06:45:01;;;;;;;15.37;5.73;;;-11.40;99.90;;;;;;4374148;28;659490;-67
2021/01/31 06:48:09;;;;;;;15.77;6.47;;;-11.40;99.90;;;;;;4407776;28;657510;-69
2021/01/31 06:51:22;;;;;;;27.27;6.20;;;-11.40;99.90;;;;;;4382795;28;658503;-67
2021/01/31 06:54:28;;;;;;;14.27;5.10;;;-11.40;99.90;;;;;;4389607;28;658759;-66
2021/01/31 06:57:37;;;;;;;9.97;4.57;;;-11.30;99.90;;;;;;4395367;28;657805;-69
2021/01/31 07:01:06;;;;;;;19.13;5.57;;;-11.10;99.90;;;;;;4403867;28;656346;-69
2021/01/31 07:04:32;;;;;;;18.67;6.60;;;-11.00;99.90;;;;;;4427053;28;658280;-71
2021/01/31 07:07:44;;;;;;;25.80;9.77;;;-11.00;99.90;;;;;;4397763;28;658026;-66
2021/01/31 07:10:58;;;;;;;32.67;12.30;;;-11.00;99.90;;;;;;4427330;28;658380;-68
2021/01/31 07:14:12;;;;;;;23.85;7.97;;;-10.90;99.90;;;;;;4400639;28;659088;-67
2021/01/31 07:17:04;;;;;;;19.23;7.30;;;-10.90;99.90;;;;;;4394727;28;658295;-69
2021/01/31 07:19:55;;;;;;;28.03;11.07;;;-10.80;99.90;;;;;;4425469;28;659468;-66
2021/01/31 07:22:44;;;;;;;37.77;11.83;;;-10.70;99.90;;;;;;4410095;28;659384;-69
2021/01/31 07:25:32;;;;;;;43.05;13.15;;;-10.70;99.90;;;;;;4427529;28;660039;-68
2021/01/31 07:28:22;;;;;;;31.40;9.20;;;-10.60;99.90;;;;;;4420784;28;659238;-68
2021/01/31 07:31:11;;;;;;;25.23;9.53;;;-10.40;99.90;;;;;;4429148;28;657777;-69
2021/01/31 07:34:03;;;;;;;31.10;10.63;;;-10.30;99.90;;;;;;4445973;28;657174;-66
2021/01/31 07:37:09;;;;;;;34.87;11.43;;;-10.20;99.90;;;;;;4420816;28;658652;-67
2021/01/31 07:40:03;;;;;;;30.77;9.57;;;-10.00;99.90;;;;;;4388140;28;659305;-67
2021/01/31 07:42:53;;;;;;;34.60;11.80;;;-9.80;99.90;;;;;;4429419;28;657861;-68
2021/01/31 07:45:40;;;;;;;30.60;11.17;;;-9.50;99.90;;;;;;4428109;28;658512;-67
2021/01/31 07:48:39;;;;;;;40.47;14.20;;;-9.30;99.90;;;;;;4438751;28;657623;-67
2021/01/31 07:51:58;;;;;;;52.67;17.33;;;-9.10;99.90;;;;;;4395125;28;657861;-68
2021/01/31 07:54:44;;;;;;;61.80;21.05;;;-8.80;99.90;;;;;;4391026;28;658370;-67
2021/01/31 07:57:34;;;;;;;65.27;19.37;;;-8.50;99.90;;;;;;4436329;28;659285;-70
2021/01/31 08:00:22;;;;;;;24.47;10.13;;;-8.10;99.90;;;;;;4419236;28;658294;-70
2021/01/31 08:03:20;;;;;;;72.07;23.87;;;-7.80;99.90;;;;;;4427914;28;657320;-64
2021/01/31 08:06:12;;;;;;;95.63;31.30;;;-7.50;99.90;;;;;;4416142;28;658696;-68
2021/01/31 08:08:59;;;;;;;95.00;29.33;;;-7.20;99.90;;;;;;4401770;28;657954;-67
2021/01/31 08:12:04;;;;;;;129.20;36.50;;;-6.80;99.90;;;;;;4443052;28;658789;-70
2021/01/31 08:15:10;;;;;;;107.57;30.73;;;-6.30;99.90;;;;;;4394372;28;659649;-68
2021/01/31 08:18:11;;;;;;;103.60;29.60;;;-5.50;99.90;;;;;;4419576;28;658924;-67
2021/01/31 08:20:58;;;;;;;75.38;23.00;;;-4.50;99.90;;;;;;4417545;28;658621;-67
2021/01/31 08:23:46;;;;;;;85.57;27.48;;;-3.70;99.90;;;;;;4429406;28;658017;-69
2021/01/31 08:26:46;;;;;;;43.63;15.47;;;-2.70;99.90;;;;;;4450942;28;657672;-69
2021/01/31 08:29:33;;;;;;;52.77;17.03;;;-1.70;99.90;;;;;;4424129;28;658439;-67
2021/01/31 08:32:21;;;;;;;23.30;8.47;;;-0.90;99.90;;;;;;4427751;28;657650;-69
2021/01/31 08:35:19;;;;;;;46.93;13.27;;;-0.10;92.50;;;;;;4437552;28;656420;-69
2021/01/31 08:38:14;;;;;;;34.60;11.37;;;0.90;87.40;;;;;;4401970;28;657925;-68
2021/01/31 08:41:29;;;;;;;33.67;10.07;;;1.70;77.40;;;;;;4405968;28;656814;-68
2021/01/31 08:44:52;;;;;;;28.20;8.40;;;2.00;67.30;;;;;;4400050;28;656907;-68
2021/01/31 08:47:43;;;;;;;27.20;7.80;;;2.20;69.00;;;;;;4405059;28;655767;-66
2021/01/31 08:50:30;;;;;;;57.80;17.37;;;2.20;65.40;;;;;;4420784;28;655332;-67
2021/01/31 08:53:17;;;;;;;18.60;7.23;;;2.30;60.60;;;;;;4446340;28;657363;-68
2021/01/31 08:56:21;;;;;;;17.13;7.73;;;2.50;63.20;;;;;;4430213;28;655738;-66
2021/01/31 08:59:10;;;;;;;28.30;11.90;;;2.50;59.40;;;;;;4422487;28;655808;-68
2021/01/31 09:02:12;;;;;;;12.17;5.97;;;2.70;60.10;;;;;;4421903;28;657008;-68
2021/01/31 09:05:03;;;;;;;18.57;8.13;;;2.80;58.10;;;;;;4400438;28;655350;-67
2021/01/31 09:07:51;;;;;;;16.98;6.47;;;2.80;57.00;;;;;;4431762;28;655291;-67
2021/01/31 09:10:40;;;;;;;13.57;5.87;;;2.90;56.40;;;;;;4449663;28;655496;-67
2021/01/31 09:13:29;;;;;;;16.63;6.90;;;3.20;53.60;;;;;;4425066;28;656696;-68
2021/01/31 09:16:19;;;;;;;14.87;6.33;;;2.80;52.40;;;;;;4430132;28;656447;-67
2021/01/31 09:19:07;;;;;;;18.87;7.07;;;2.80;54.30;;;;;;4411930;28;656776;-68
2021/01/31 09:21:56;;;;;;;18.27;6.77;;;2.80;53.90;;;;;;4434359;28;655341;-65
2021/01/31 09:24:44;;;;;;;17.03;6.83;;;2.60;54.60;;;;;;4449373;28;656181;-68
2021/01/31 09:27:31;;;;;;;20.53;6.37;;;2.60;54.50;;;;;;4426445;28;656355;-67
2021/01/31 09:30:19;;;;;;;23.40;8.70;;;2.80;53.20;;;;;;4444932;28;656121;-67
2021/01/31 09:33:08;;;;;;;19.83;8.45;;;2.60;52.50;;;;;;4429522;28;656672;-68
2021/01/31 09:35:55;;;;;;;21.10;8.87;;;2.30;54.40;;;;;;4433592;28;655747;-67
2021/01/31 09:38:43;;;;;;;16.92;6.80;;;2.40;54.80;;;;;;4453838;28;656060;-68
2021/01/31 09:41:30;;;;;;;20.40;8.15;;;2.70;53.90;;;;;;4435022;28;655751;-67
2021/01/31 09:44:18;;;;;;;24.23;9.43;;;3.00;53.70;;;;;;4454236;28;656177;-67
2021/01/31 09:47:05;;;;;;;25.30;9.90;;;3.30;52.70;;;;;;4435051;28;655683;-67
2021/01/31 09:49:53;;;;;;;27.80;9.60;;;3.60;52.40;;;;;;4450142;28;657032;-67
2021/01/31 09:52:43;;;;;;;22.27;9.37;;;3.70;52.30;;;;;;4433792;28;656547;-68
2021/01/31 09:55:42;;;;;;;26.37;9.27;;;4.20;51.00;;;;;;4434627;28;655567;-68
2021/01/31 09:58:49;;;;;;;22.60;9.93;;;4.20;49.00;;;;;;4411855;28;655402;-67
2021/01/31 10:01:36;;;;;;;23.07;6.73;;;3.80;50.50;;;;;;4410936;28;655461;-68
2021/01/31 10:04:24;;;;;;;26.77;9.07;;;3.90;50.40;;;;;;4434416;28;655911;-68
2021/01/31 10:07:12;;;;;;;14.83;5.20;;;4.00;49.80;;;;;;4398664;28;656685;-68
2021/01/31 10:09:59;;;;;;;13.90;5.07;;;3.90;49.30;;;;;;4416166;28;655912;-65
2021/01/31 10:12:47;;;;;;;28.80;10.25;;;3.50;49.30;;;;;;4439222;28;655626;-68
2021/01/31 10:15:37;;;;;;;39.25;13.13;;;3.10;51.10;;;;;;4401098;28;656687;-65
2021/01/31 10:18:32;;;;;;;27.60;10.47;;;3.20;51.10;;;;;;4414638;28;656620;-65
2021/01/31 10:21:29;;;;;;;27.70;10.70;;;3.10;51.00;;;;;;4401791;28;656571;-66
2021/01/31 10:24:27;;;;;;;30.45;10.27;;;3.50;51.30;;;;;;4400904;28;657813;-68
2021/01/31 10:27:23;;;;;;;26.20;10.10;;;3.80;51.20;;;;;;4381495;28;657131;-66
2021/01/31 10:30:25;;;;;;;29.23;10.93;;;4.10;49.20;;;;;;4389710;28;657332;-68
2021/01/31 10:33:39;;;;;;;31.37;11.20;;;4.60;50.50;;;;;;4410742;28;657300;-68
2021/01/31 10:36:41;;;;;;;23.57;10.20;;;4.80;47.80;;;;;;4411274;28;656711;-68
2021/01/31 10:39:29;;;;;;;25.43;10.80;;;4.80;47.00;;;;;;4392599;28;656435;-67
2021/01/31 10:42:16;;;;;;;29.17;10.70;;;5.00;47.60;;;;;;4437528;28;657554;-68
2021/01/31 10:45:05;;;;;;;29.57;11.57;;;5.00;48.40;;;;;;4436011;28;656555;-68
2021/01/31 10:47:53;;;;;;;23.50;10.00;;;5.70;48.10;;;;;;4410782;28;657592;-68
2021/01/31 10:50:40;;;;;;;26.57;11.20;;;6.10;45.30;;;;;;4410643;28;656588;-68
2021/01/31 10:53:27;;;;;;;28.23;9.80;;;6.50;45.50;;;;;;4432900;28;658319;-68
2021/01/31 10:56:14;;;;;;;26.70;11.33;;;6.90;43.50;;;;;;4415853;28;655375;-66
2021/01/31 10:59:01;;;;;;;32.70;11.43;;;6.60;43.70;;;;;;4430743;28;657790;-68
2021/01/31 11:01:49;;;;;;;27.73;11.13;;;6.80;44.20;;;;;;4444843;28;656575;-68
2021/01/31 11:04:37;;;;;;;28.20;11.10;;;7.50;45.00;;;;;;4428232;28;657455;-68
2021/01/31 11:07:24;;;;;;;28.57;9.93;;;7.10;42.30;;;;;;4442975;28;656462;-65
2021/01/31 11:10:12;;;;;;;28.10;11.03;;;6.90;42.50;;;;;;4455492;28;655343;-68
2021/01/31 11:12:59;;;;;;;31.17;12.40;;;7.20;42.70;;;;;;4428637;28;656357;-66
2021/01/31 11:15:47;;;;;;;29.63;11.60;;;8.10;41.50;;;;;;4450724;28;656420;-66
2021/01/31 11:18:34;;;;;;;32.20;12.27;;;8.20;41.20;;;;;;4438061;28;656714;-65
2021/01/31 11:21:23;;;;;;;28.88;12.70;;;8.60;39.50;;;;;;4435850;28;657872;-68
2021/01/31 11:24:10;;;;;;;28.47;11.73;;;8.00;39.10;;;;;;4406664;28;657266;-67
2021/01/31 11:26:57;;;;;;;27.83;11.93;;;7.80;41.20;;;;;;4439991;28;657832;-68
2021/01/31 11:29:44;;;;;;;36.73;12.63;;;7.30;41.60;;;;;;4420146;28;656620;-65
2021/01/31 11:32:31;;;;;;;28.57;12.30;;;7.40;42.50;;;;;;4454485;28;657918;-68
2021/01/31 11:35:19;;;;;;;33.43;13.80;;;7.40;41.30;;;;;;4445993;28;657091;-68
2021/01/31 11:38:07;;;;;;;30.65;11.48;;;7.50;42.70;;;;;;4428275;28;657400;-67
2021/01/31 11:40:54;;;;;;;28.50;12.32;;;7.80;40.60;;;;;;4422179;28;656791;-65
2021/01/31 11:43:41;;;;;;;30.45;13.32;;;8.00;40.00;;;;;;4453735;28;657316;-68
2021/01/31 11:46:28;;;;;;;24.80;9.53;;;8.30;40.20;;;;;;4448089;28;656991;-68
2021/01/31 11:49:16;;;;;;;30.93;12.60;;;8.70;38.80;;;;;;4428284;28;656432;-68
2021/01/31 11:52:03;;;;;;;27.53;12.10;;;8.40;39.10;;;;;;4448343;28;656108;-68
2021/01/31 11:54:51;;;;;;;28.60;12.47;;;8.70;38.90;;;;;;4430512;28;656438;-68
2021/01/31 11:57:38;;;;;;;31.33;13.93;;;9.20;38.90;;;;;;4438656;28;658311;-68
2021/01/31 12:00:25;;;;;;;33.97;13.73;;;9.70;36.80;;;;;;4429844;28;656989;-66
2021/01/31 12:03:12;;;;;;;32.13;13.47;;;10.00;35.80;;;;;;4449198;28;657816;-68
2021/01/31 12:05:59;;;;;;;31.23;12.67;;;10.30;34.80;;;;;;4426381;28;657681;-65
2021/01/31 12:08:46;;;;;;;29.47;11.73;;;10.60;34.40;;;;;;4446963;28;657257;-67
2021/01/31 12:11:35;;;;;;;30.05;12.52;;;10.60;34.40;;;;;;4444931;28;658006;-68
2021/01/31 12:14:22;;;;;;;31.83;13.80;;;10.80;33.20;;;;;;4422154;28;658151;-68
2021/01/31 12:17:09;;;;;;;31.10;12.27;;;9.80;34.90;;;;;;4426616;28;657582;-66
2021/01/31 12:19:56;;;;;;;39.57;14.17;;;9.40;35.40;;;;;;4444278;28;656401;-68
2021/01/31 12:22:43;;;;;;;33.43;13.50;;;8.40;36.90;;;;;;4445334;28;656714;-68
2021/01/31 12:25:30;;;;;;;27.77;12.07;;;8.00;38.90;;;;;;4425855;28;656784;-68
2021/01/31 12:28:18;;;;;;;29.37;12.77;;;7.80;39.20;;;;;;4443670;28;658008;-68
2021/01/31 12:31:05;;;;;;;28.93;12.33;;;8.50;40.30;;;;;;4419185;28;658202;-68
2021/01/31 12:33:53;;;;;;;23.40;10.73;;;9.60;37.80;;;;;;4441147;28;657695;-68
2021/01/31 12:36:41;;;;;;;27.97;10.53;;;10.20;35.00;;;;;;4424726;28;656629;-67
2021/01/31 12:39:28;;;;;;;25.23;10.83;;;11.00;32.60;;;;;;4434647;28;658863;-68
2021/01/31 12:42:15;;;;;;;23.27;10.57;;;11.30;31.50;;;;;;4427514;28;657558;-67
2021/01/31 12:45:04;;;;;;;27.03;11.77;;;11.50;31.50;;;;;;4442304;28;658915;-64
2021/01/31 12:47:51;;;;;;;26.77;11.57;;;11.20;30.30;;;;;;4417680;28;659081;-67
2021/01/31 12:50:38;;;;;;;27.90;10.73;;;10.80;31.00;;;;;;4440235;28;657143;-67
2021/01/31 12:53:25;;;;;;;26.13;11.03;;;10.20;31.80;;;;;;4424097;28;658552;-68
2021/01/31 12:56:12;;;;;;;23.63;10.43;;;9.90;33.30;;;;;;4443642;28;658581;-68
2021/01/31 12:58:59;;;;;;;24.80;11.67;;;9.70;33.70;;;;;;4427020;28;656792;-63
2021/01/31 13:01:47;;;;;;;25.00;11.10;;;9.60;34.40;;;;;;4434566;28;657355;-68
2021/01/31 13:04:34;;;;;;;24.73;12.10;;;10.30;33.20;;;;;;4409086;28;657345;-65
2021/01/31 13:07:21;;;;;;;35.53;14.55;;;10.60;32.60;;;;;;4442996;28;657372;-68
2021/01/31 13:10:10;;;;;;;27.07;12.23;;;11.00;32.40;;;;;;4439446;28;657368;-68
2021/01/31 13:12:57;;;;;;;32.63;13.40;;;11.00;31.90;;;;;;4416318;28;658301;-68
2021/01/31 13:15:44;;;;;;;27.20;12.67;;;10.90;32.70;;;;;;4417479;28;658987;-65
2021/01/31 13:18:32;;;;;;;30.47;13.77;;;11.10;32.40;;;;;;4438741;28;657795;-68
2021/01/31 13:21:19;;;;;;;25.83;12.63;;;10.80;33.10;;;;;;4419992;28;658990;-65
2021/01/31 13:24:07;;;;;;;27.87;13.53;;;11.10;32.90;;;;;;4448408;28;657697;-68
2021/01/31 13:26:54;;;;;;;31.90;14.80;;;10.80;32.70;;;;;;4424871;28;657472;-65
2021/01/31 13:29:41;;;;;;;28.40;13.67;;;11.10;32.80;;;;;;4426393;28;657431;-68
2021/01/31 13:32:28;;;;;;;32.50;14.83;;;11.70;31.80;;;;;;4414410;28;657725;-68
2021/01/31 13:35:17;;;;;;;28.63;13.70;;;11.20;32.70;;;;;;4395656;28;658751;-69
2021/01/31 13:38:04;;;;;;;28.63;14.10;;;12.10;31.40;;;;;;4420551;28;657820;-66
2021/01/31 13:40:51;;;;;;;28.13;13.67;;;12.90;31.60;;;;;;4435370;28;659104;-68
2021/01/31 13:43:38;;;;;;;28.50;13.63;;;13.20;30.80;;;;;;4437692;28;657666;-67
2021/01/31 13:46:25;;;;;;;29.70;13.67;;;13.10;30.10;;;;;;4425231;28;658234;-68
2021/01/31 13:49:13;;;;;;;26.20;12.80;;;13.30;29.70;;;;;;4443932;28;658344;-67
2021/01/31 13:52:00;;;;;;;29.73;14.87;;;13.00;29.70;;;;;;4413949;28;657842;-68
2021/01/31 13:54:49;;;;;;;24.13;11.87;;;12.70;30.10;;;;;;4446746;28;658134;-68
2021/01/31 13:57:37;;;;;;;29.93;13.10;;;12.40;30.00;;;;;;4428493;28;658784;-68
2021/01/31 14:00:25;;;;;;;34.77;16.30;;;12.80;29.90;;;;;;4415702;28;658309;-64
2021/01/31 14:03:12;;;;;;;34.20;15.90;;;12.50;29.70;;;;;;4446194;28;658299;-67
2021/01/31 14:05:59;;;;;;;33.33;14.90;;;12.30;29.90;;;;;;4434314;28;657510;-65
2021/01/31 14:08:47;;;;;;;48.50;21.53;;;11.50;30.80;;;;;;4441108;28;657562;-67
2021/01/31 14:11:34;;;;;;;33.42;15.82;;;12.00;30.30;;;;;;4429160;28;657830;-65
2021/01/31 14:14:21;;;;;;;36.70;16.57;;;11.50;31.00;;;;;;4448354;28;659483;-67
2021/01/31 14:17:08;;;;;;;39.40;18.60;;;11.10;31.50;;;;;;4438666;28;657110;-68
2021/01/31 14:19:55;;;;;;;38.87;17.93;;;10.90;31.20;;;;;;4426636;28;657699;-67
2021/01/31 14:22:42;;;;;;;39.13;17.47;;;11.40;30.90;;;;;;4451178;28;658563;-67
2021/01/31 14:25:30;;;;;;;32.37;15.47;;;11.10;31.30;;;;;;4419744;28;657990;-65